sensor_id;sensor_type;location;lat;lon;timestamp;P1;durP1;ratioP1;P2;durP2;ratioP2
19854;SDS011;10088;47.946;2.532;2022-12-29T00:01:16;1.97;;;1.10;;
19854;SDS011;10088;47.946;2.532;2022-12-29T00:03:42;2.43;;;1.30;;
19854;SDS011;10088;47.946;2.532;2022-12-29T00:06:10;3.47;;;1.77;;
19854;SDS011;10088;47.946;2.532;2022-12-29T00:08:35;4.67;;;1.60;;
19854;SDS011;10088;47.946;2.532;2022-12-29T00:13:32;2.70;;;1.30;;
19854;SDS011;10088;47.946;2.532;2022-12-29T00:16:16;3.13;;;1.37;;
19854;SDS011;10088;47.946;2.532;2022-12-29T00:18:41;3.23;;;1.30;;
19854;SDS011;10088;47.946;2.532;2022-12-29T00:21:07;3.23;;;1.30;;
19854;SDS011;10088;47.946;2.532;2022-12-29T00:23:51;2.83;;;1.50;;
19854;SDS011;10088;47.946;2.532;2022-12-29T00:26:35;4.77;;;1.50;;
19854;SDS011;10088;47.946;2.532;2022-12-29T00:29:19;3.43;;;1.30;;
19854;SDS011;10088;47.946;2.532;2022-12-29T00:32:03;4.87;;;1.20;;
19854;SDS011;10088;47.946;2.532;2022-12-29T00:34:47;1.37;;;0.97;;
19854;SDS011;10088;47.946;2.532;2022-12-29T00:37:31;3.47;;;0.80;;
19854;SDS011;10088;47.946;2.532;2022-12-29T00:40:15;3.40;;;1.03;;
19854;SDS011;10088;47.946;2.532;2022-12-29T00:42:59;4.77;;;1.23;;
19854;SDS011;10088;47.946;2.532;2022-12-29T00:45:43;1.77;;;1.10;;
19854;SDS011;10088;47.946;2.532;2022-12-29T00:48:08;1.90;;;0.87;;
19854;SDS011;10088;47.946;2.532;2022-12-29T00:50:33;3.40;;;0.80;;
19854;SDS011;10088;47.946;2.532;2022-12-29T00:52:59;1.07;;;0.70;;
19854;SDS011;10088;47.946;2.532;2022-12-29T00:55:24;3.53;;;0.93;;
19854;SDS011;10088;47.946;2.532;2022-12-29T00:57:49;2.60;;;1.00;;
19854;SDS011;10088;47.946;2.532;2022-12-29T01:00:15;1.40;;;0.87;;
19854;SDS011;10088;47.946;2.532;2022-12-29T01:02:40;2.13;;;0.90;;
19854;SDS011;10088;47.946;2.532;2022-12-29T01:05:05;2.60;;;1.00;;
19854;SDS011;10088;47.946;2.532;2022-12-29T01:07:31;2.53;;;1.07;;
19854;SDS011;10088;47.946;2.532;2022-12-29T01:09:56;1.60;;;0.97;;
19854;SDS011;10088;47.946;2.532;2022-12-29T01:12:51;2.47;;;0.90;;
19854;SDS011;10088;47.946;2.532;2022-12-29T01:15:16;1.53;;;0.67;;
19854;SDS011;10088;47.946;2.532;2022-12-29T01:17:42;3.33;;;0.93;;
19854;SDS011;10088;47.946;2.532;2022-12-29T01:20:07;2.50;;;0.90;;
19854;SDS011;10088;47.946;2.532;2022-12-29T01:22:33;2.10;;;1.20;;
19854;SDS011;10088;47.946;2.532;2022-12-29T01:24:58;2.03;;;0.90;;
19854;SDS011;10088;47.946;2.532;2022-12-29T01:27:23;1.17;;;1.00;;
19854;SDS011;10088;47.946;2.532;2022-12-29T01:29:48;0.87;;;0.80;;
19854;SDS011;10088;47.946;2.532;2022-12-29T01:32:14;2.53;;;1.20;;
19854;SDS011;10088;47.946;2.532;2022-12-29T01:34:39;2.03;;;1.20;;
19854;SDS011;10088;47.946;2.532;2022-12-29T01:37:05;1.27;;;0.90;;
19854;SDS011;10088;47.946;2.532;2022-12-29T01:39:30;1.87;;;0.90;;
19854;SDS011;10088;47.946;2.532;2022-12-29T01:41:55;1.83;;;1.20;;
19854;SDS011;10088;47.946;2.532;2022-12-29T01:47:06;2.23;;;1.00;;
19854;SDS011;10088;47.946;2.532;2022-12-29T01:49:32;4.37;;;1.40;;
19854;SDS011;10088;47.946;2.532;2022-12-29T01:51:59;2.97;;;1.63;;
19854;SDS011;10088;47.946;2.532;2022-12-29T01:54:40;2.33;;;1.30;;
19854;SDS011;10088;47.946;2.532;2022-12-29T01:57:07;2.70;;;1.60;;
19854;SDS011;10088;47.946;2.532;2022-12-29T02:00:16;2.50;;;1.20;;
19854;SDS011;10088;47.946;2.532;2022-12-29T02:02:22;3.80;;;1.20;;
19854;SDS011;10088;47.946;2.532;2022-12-29T02:04:48;1.80;;;1.40;;
19854;SDS011;10088;47.946;2.532;2022-12-29T02:07:15;2.40;;;1.00;;
19854;SDS011;10088;47.946;2.532;2022-12-29T02:09:41;1.87;;;1.33;;
19854;SDS011;10088;47.946;2.532;2022-12-29T02:12:07;1.63;;;1.30;;
19854;SDS011;10088;47.946;2.532;2022-12-29T02:14:32;5.27;;;1.30;;
19854;SDS011;10088;47.946;2.532;2022-12-29T02:17:08;1.90;;;1.10;;
19854;SDS011;10088;47.946;2.532;2022-12-29T02:22:26;3.00;;;1.63;;
19854;SDS011;10088;47.946;2.532;2022-12-29T02:35:05;1.80;;;1.00;;
19854;SDS011;10088;47.946;2.532;2022-12-29T02:37:44;4.00;;;1.10;;
19854;SDS011;10088;47.946;2.532;2022-12-29T02:45:18;1.10;;;1.00;;
19854;SDS011;10088;47.946;2.532;2022-12-29T02:48:04;2.97;;;1.30;;
19854;SDS011;10088;47.946;2.532;2022-12-29T02:50:39;2.17;;;1.10;;
19854;SDS011;10088;47.946;2.532;2022-12-29T02:53:09;3.23;;;1.60;;
19854;SDS011;10088;47.946;2.532;2022-12-29T02:55:36;2.10;;;1.17;;
19854;SDS011;10088;47.946;2.532;2022-12-29T02:58:21;1.73;;;1.20;;
19854;SDS011;10088;47.946;2.532;2022-12-29T03:01:29;2.03;;;1.50;;
19854;SDS011;10088;47.946;2.532;2022-12-29T03:06:22;3.10;;;1.40;;
19854;SDS011;10088;47.946;2.532;2022-12-29T03:11:16;2.77;;;1.87;;
19854;SDS011;10088;47.946;2.532;2022-12-29T03:17:10;1.90;;;1.23;;
19854;SDS011;10088;47.946;2.532;2022-12-29T03:19:39;1.77;;;1.20;;
19854;SDS011;10088;47.946;2.532;2022-12-29T03:22:07;1.50;;;1.03;;
19854;SDS011;10088;47.946;2.532;2022-12-29T03:24:52;2.73;;;1.50;;
19854;SDS011;10088;47.946;2.532;2022-12-29T03:27:23;6.90;;;1.70;;
19854;SDS011;10088;47.946;2.532;2022-12-29T03:29:52;1.73;;;1.03;;
19854;SDS011;10088;47.946;2.532;2022-12-29T03:32:20;2.70;;;1.47;;
19854;SDS011;10088;47.946;2.532;2022-12-29T03:34:47;4.47;;;2.07;;
19854;SDS011;10088;47.946;2.532;2022-12-29T03:37:14;4.07;;;1.07;;
19854;SDS011;10088;47.946;2.532;2022-12-29T03:39:40;3.17;;;1.40;;
19854;SDS011;10088;47.946;2.532;2022-12-29T03:42:08;3.50;;;1.60;;
19854;SDS011;10088;47.946;2.532;2022-12-29T03:44:35;1.83;;;1.33;;
19854;SDS011;10088;47.946;2.532;2022-12-29T03:47:01;3.50;;;1.00;;
19854;SDS011;10088;47.946;2.532;2022-12-29T03:49:26;3.77;;;1.40;;
19854;SDS011;10088;47.946;2.532;2022-12-29T03:51:52;4.83;;;1.10;;
19854;SDS011;10088;47.946;2.532;2022-12-29T03:54:17;4.20;;;1.30;;
19854;SDS011;10088;47.946;2.532;2022-12-29T03:56:42;3.37;;;1.30;;
19854;SDS011;10088;47.946;2.532;2022-12-29T03:59:08;1.17;;;0.83;;
19854;SDS011;10088;47.946;2.532;2022-12-29T04:01:33;1.87;;;1.00;;
19854;SDS011;10088;47.946;2.532;2022-12-29T04:03:59;3.00;;;1.20;;
19854;SDS011;10088;47.946;2.532;2022-12-29T04:06:24;2.77;;;1.20;;
19854;SDS011;10088;47.946;2.532;2022-12-29T04:08:49;1.83;;;0.77;;
19854;SDS011;10088;47.946;2.532;2022-12-29T04:11:15;1.33;;;0.87;;
19854;SDS011;10088;47.946;2.532;2022-12-29T04:13:40;1.20;;;0.80;;
19854;SDS011;10088;47.946;2.532;2022-12-29T04:16:06;1.30;;;0.60;;
19854;SDS011;10088;47.946;2.532;2022-12-29T04:18:31;1.57;;;0.60;;
19854;SDS011;10088;47.946;2.532;2022-12-29T04:20:56;2.90;;;1.00;;
19854;SDS011;10088;47.946;2.532;2022-12-29T04:23:25;2.63;;;0.90;;
19854;SDS011;10088;47.946;2.532;2022-12-29T04:25:50;0.97;;;0.83;;
19854;SDS011;10088;47.946;2.532;2022-12-29T04:28:16;1.87;;;0.87;;
19854;SDS011;10088;47.946;2.532;2022-12-29T04:30:42;2.43;;;1.03;;
19854;SDS011;10088;47.946;2.532;2022-12-29T04:33:08;3.60;;;0.97;;
19854;SDS011;10088;47.946;2.532;2022-12-29T04:35:33;3.17;;;0.90;;
19854;SDS011;10088;47.946;2.532;2022-12-29T04:37:59;2.50;;;0.80;;
19854;SDS011;10088;47.946;2.532;2022-12-29T04:40:24;3.37;;;0.90;;
19854;SDS011;10088;47.946;2.532;2022-12-29T04:42:49;1.60;;;0.90;;
19854;SDS011;10088;47.946;2.532;2022-12-29T04:45:15;1.20;;;0.70;;
19854;SDS011;10088;47.946;2.532;2022-12-29T04:47:40;2.33;;;0.90;;
19854;SDS011;10088;47.946;2.532;2022-12-29T04:50:06;3.63;;;1.00;;
19854;SDS011;10088;47.946;2.532;2022-12-29T04:52:31;1.97;;;0.80;;
19854;SDS011;10088;47.946;2.532;2022-12-29T04:54:57;4.17;;;1.90;;
19854;SDS011;10088;47.946;2.532;2022-12-29T04:57:22;3.17;;;0.80;;
19854;SDS011;10088;47.946;2.532;2022-12-29T04:59:48;6.07;;;1.53;;
19854;SDS011;10088;47.946;2.532;2022-12-29T05:02:13;4.60;;;2.20;;
19854;SDS011;10088;47.946;2.532;2022-12-29T05:04:38;3.50;;;2.00;;
19854;SDS011;10088;47.946;2.532;2022-12-29T05:07:03;5.30;;;1.93;;
19854;SDS011;10088;47.946;2.532;2022-12-29T05:09:29;5.30;;;2.87;;
19854;SDS011;10088;47.946;2.532;2022-12-29T05:11:55;3.73;;;1.43;;
19854;SDS011;10088;47.946;2.532;2022-12-29T05:14:20;3.03;;;1.90;;
19854;SDS011;10088;47.946;2.532;2022-12-29T05:16:45;2.63;;;1.50;;
19854;SDS011;10088;47.946;2.532;2022-12-29T05:19:11;9.70;;;5.93;;
19854;SDS011;10088;47.946;2.532;2022-12-29T05:21:36;5.50;;;2.20;;
19854;SDS011;10088;47.946;2.532;2022-12-29T05:24:01;2.87;;;1.13;;
19854;SDS011;10088;47.946;2.532;2022-12-29T05:26:27;7.07;;;2.90;;
19854;SDS011;10088;47.946;2.532;2022-12-29T05:28:52;2.23;;;1.60;;
19854;SDS011;10088;47.946;2.532;2022-12-29T05:31:17;0.87;;;0.73;;
19854;SDS011;10088;47.946;2.532;2022-12-29T05:33:43;2.40;;;1.60;;
19854;SDS011;10088;47.946;2.532;2022-12-29T05:36:08;6.30;;;2.67;;
19854;SDS011;10088;47.946;2.532;2022-12-29T05:38:34;2.17;;;1.10;;
19854;SDS011;10088;47.946;2.532;2022-12-29T05:40:59;2.17;;;1.23;;
19854;SDS011;10088;47.946;2.532;2022-12-29T05:43:25;4.90;;;1.43;;
19854;SDS011;10088;47.946;2.532;2022-12-29T05:45:51;6.63;;;4.40;;
19854;SDS011;10088;47.946;2.532;2022-12-29T05:48:16;13.10;;;7.23;;
19854;SDS011;10088;47.946;2.532;2022-12-29T05:50:42;5.67;;;1.87;;
19854;SDS011;10088;47.946;2.532;2022-12-29T05:53:07;4.73;;;1.63;;
19854;SDS011;10088;47.946;2.532;2022-12-29T05:55:33;4.80;;;2.10;;
19854;SDS011;10088;47.946;2.532;2022-12-29T05:57:58;4.80;;;1.97;;
19854;SDS011;10088;47.946;2.532;2022-12-29T06:00:24;4.90;;;3.00;;
19854;SDS011;10088;47.946;2.532;2022-12-29T06:02:49;4.87;;;1.80;;
19854;SDS011;10088;47.946;2.532;2022-12-29T06:05:14;2.77;;;1.00;;
19854;SDS011;10088;47.946;2.532;2022-12-29T06:07:40;6.77;;;1.70;;
19854;SDS011;10088;47.946;2.532;2022-12-29T06:10:05;8.33;;;3.20;;
19854;SDS011;10088;47.946;2.532;2022-12-29T06:12:31;3.80;;;1.30;;
19854;SDS011;10088;47.946;2.532;2022-12-29T06:14:56;9.10;;;3.07;;
19854;SDS011;10088;47.946;2.532;2022-12-29T06:17:21;5.13;;;1.50;;
19854;SDS011;10088;47.946;2.532;2022-12-29T06:19:47;3.67;;;1.10;;
19854;SDS011;10088;47.946;2.532;2022-12-29T06:22:13;5.83;;;1.47;;
19854;SDS011;10088;47.946;2.532;2022-12-29T06:24:38;4.90;;;1.10;;
19854;SDS011;10088;47.946;2.532;2022-12-29T06:27:03;11.27;;;3.30;;
19854;SDS011;10088;47.946;2.532;2022-12-29T06:29:29;8.73;;;3.20;;
19854;SDS011;10088;47.946;2.532;2022-12-29T06:31:54;6.63;;;1.30;;
19854;SDS011;10088;47.946;2.532;2022-12-29T06:34:23;2.50;;;1.37;;
19854;SDS011;10088;47.946;2.532;2022-12-29T06:36:48;6.80;;;2.00;;
19854;SDS011;10088;47.946;2.532;2022-12-29T06:39:13;9.17;;;2.57;;
19854;SDS011;10088;47.946;2.532;2022-12-29T06:41:39;4.37;;;1.47;;
19854;SDS011;10088;47.946;2.532;2022-12-29T06:44:04;9.67;;;2.97;;
19854;SDS011;10088;47.946;2.532;2022-12-29T06:46:29;9.50;;;2.70;;
19854;SDS011;10088;47.946;2.532;2022-12-29T06:48:54;5.17;;;1.33;;
19854;SDS011;10088;47.946;2.532;2022-12-29T06:51:20;8.40;;;1.10;;
19854;SDS011;10088;47.946;2.532;2022-12-29T06:53:45;5.80;;;1.70;;
19854;SDS011;10088;47.946;2.532;2022-12-29T06:56:10;10.57;;;2.17;;
19854;SDS011;10088;47.946;2.532;2022-12-29T06:58:36;10.20;;;2.13;;
19854;SDS011;10088;47.946;2.532;2022-12-29T07:01:01;14.67;;;5.47;;
19854;SDS011;10088;47.946;2.532;2022-12-29T07:03:26;12.43;;;4.93;;
19854;SDS011;10088;47.946;2.532;2022-12-29T07:05:51;10.77;;;2.40;;
19854;SDS011;10088;47.946;2.532;2022-12-29T07:08:17;9.17;;;2.40;;
19854;SDS011;10088;47.946;2.532;2022-12-29T07:10:42;5.20;;;1.90;;
19854;SDS011;10088;47.946;2.532;2022-12-29T07:13:07;6.00;;;2.07;;
19854;SDS011;10088;47.946;2.532;2022-12-29T07:15:33;7.80;;;3.90;;
19854;SDS011;10088;47.946;2.532;2022-12-29T07:17:59;7.17;;;1.70;;
19854;SDS011;10088;47.946;2.532;2022-12-29T07:20:24;9.50;;;2.87;;
19854;SDS011;10088;47.946;2.532;2022-12-29T07:22:49;3.60;;;1.40;;
19854;SDS011;10088;47.946;2.532;2022-12-29T07:25:15;8.27;;;2.10;;
19854;SDS011;10088;47.946;2.532;2022-12-29T07:27:40;5.07;;;1.47;;
19854;SDS011;10088;47.946;2.532;2022-12-29T07:30:05;5.10;;;1.70;;
19854;SDS011;10088;47.946;2.532;2022-12-29T07:32:34;11.30;;;3.70;;
19854;SDS011;10088;47.946;2.532;2022-12-29T07:34:59;8.53;;;2.10;;
19854;SDS011;10088;47.946;2.532;2022-12-29T07:37:24;7.80;;;2.60;;
19854;SDS011;10088;47.946;2.532;2022-12-29T07:39:50;9.10;;;2.03;;
19854;SDS011;10088;47.946;2.532;2022-12-29T07:42:15;9.67;;;1.37;;
19854;SDS011;10088;47.946;2.532;2022-12-29T07:44:41;8.83;;;1.97;;
19854;SDS011;10088;47.946;2.532;2022-12-29T07:47:06;8.33;;;2.20;;
19854;SDS011;10088;47.946;2.532;2022-12-29T07:49:31;9.70;;;1.90;;
19854;SDS011;10088;47.946;2.532;2022-12-29T07:51:56;4.70;;;1.50;;
19854;SDS011;10088;47.946;2.532;2022-12-29T07:54:22;5.57;;;1.17;;
19854;SDS011;10088;47.946;2.532;2022-12-29T07:56:48;8.73;;;2.00;;
19854;SDS011;10088;47.946;2.532;2022-12-29T07:59:13;8.27;;;1.97;;
19854;SDS011;10088;47.946;2.532;2022-12-29T08:01:39;4.70;;;1.57;;
19854;SDS011;10088;47.946;2.532;2022-12-29T08:04:04;5.63;;;1.27;;
19854;SDS011;10088;47.946;2.532;2022-12-29T08:06:30;10.73;;;1.93;;
19854;SDS011;10088;47.946;2.532;2022-12-29T08:08:56;9.30;;;2.40;;
19854;SDS011;10088;47.946;2.532;2022-12-29T08:11:21;8.20;;;1.83;;
19854;SDS011;10088;47.946;2.532;2022-12-29T08:13:47;6.03;;;1.77;;
19854;SDS011;10088;47.946;2.532;2022-12-29T08:16:12;9.53;;;2.00;;
19854;SDS011;10088;47.946;2.532;2022-12-29T08:18:37;9.57;;;1.63;;
19854;SDS011;10088;47.946;2.532;2022-12-29T08:21:03;9.37;;;3.00;;
19854;SDS011;10088;47.946;2.532;2022-12-29T08:23:29;8.00;;;2.10;;
19854;SDS011;10088;47.946;2.532;2022-12-29T08:26:00;10.13;;;1.63;;
19854;SDS011;10088;47.946;2.532;2022-12-29T08:28:26;6.53;;;1.97;;
19854;SDS011;10088;47.946;2.532;2022-12-29T08:30:52;9.00;;;1.73;;
19854;SDS011;10088;47.946;2.532;2022-12-29T08:33:17;9.13;;;1.60;;
19854;SDS011;10088;47.946;2.532;2022-12-29T08:35:42;8.77;;;2.17;;
19854;SDS011;10088;47.946;2.532;2022-12-29T08:38:08;10.97;;;3.30;;
19854;SDS011;10088;47.946;2.532;2022-12-29T08:40:33;10.77;;;2.23;;
19854;SDS011;10088;47.946;2.532;2022-12-29T08:42:58;9.43;;;2.30;;
19854;SDS011;10088;47.946;2.532;2022-12-29T08:45:24;7.17;;;1.40;;
19854;SDS011;10088;47.946;2.532;2022-12-29T08:47:49;8.80;;;2.07;;
19854;SDS011;10088;47.946;2.532;2022-12-29T08:50:14;6.87;;;1.80;;
19854;SDS011;10088;47.946;2.532;2022-12-29T08:52:40;15.60;;;2.90;;
19854;SDS011;10088;47.946;2.532;2022-12-29T08:55:05;10.83;;;2.67;;
19854;SDS011;10088;47.946;2.532;2022-12-29T08:57:31;11.73;;;2.10;;
19854;SDS011;10088;47.946;2.532;2022-12-29T08:59:56;11.13;;;2.20;;
19854;SDS011;10088;47.946;2.532;2022-12-29T09:02:21;4.83;;;1.80;;
19854;SDS011;10088;47.946;2.532;2022-12-29T09:04:47;8.27;;;1.87;;
19854;SDS011;10088;47.946;2.532;2022-12-29T09:07:12;6.57;;;1.47;;
19854;SDS011;10088;47.946;2.532;2022-12-29T09:09:38;8.07;;;2.20;;
19854;SDS011;10088;47.946;2.532;2022-12-29T09:12:03;10.87;;;2.27;;
19854;SDS011;10088;47.946;2.532;2022-12-29T09:14:28;11.23;;;2.10;;
19854;SDS011;10088;47.946;2.532;2022-12-29T09:16:54;8.70;;;2.63;;
19854;SDS011;10088;47.946;2.532;2022-12-29T09:19:38;9.60;;;1.83;;
19854;SDS011;10088;47.946;2.532;2022-12-29T09:22:04;7.50;;;1.50;;
19854;SDS011;10088;47.946;2.532;2022-12-29T09:24:29;6.80;;;1.33;;
19854;SDS011;10088;47.946;2.532;2022-12-29T09:26:55;10.67;;;2.70;;
19854;SDS011;10088;47.946;2.532;2022-12-29T09:29:20;11.47;;;1.87;;
19854;SDS011;10088;47.946;2.532;2022-12-29T09:31:46;8.47;;;2.07;;
19854;SDS011;10088;47.946;2.532;2022-12-29T09:34:11;11.90;;;2.27;;
19854;SDS011;10088;47.946;2.532;2022-12-29T09:36:37;7.53;;;2.00;;
19854;SDS011;10088;47.946;2.532;2022-12-29T09:39:02;12.60;;;1.87;;
19854;SDS011;10088;47.946;2.532;2022-12-29T09:41:29;10.13;;;2.37;;
19854;SDS011;10088;47.946;2.532;2022-12-29T09:44:17;4.93;;;1.43;;
19854;SDS011;10088;47.946;2.532;2022-12-29T09:46:44;8.17;;;1.77;;
19854;SDS011;10088;47.946;2.532;2022-12-29T09:51:55;9.63;;;2.03;;
19854;SDS011;10088;47.946;2.532;2022-12-29T09:54:42;8.37;;;2.50;;
19854;SDS011;10088;47.946;2.532;2022-12-29T09:57:14;13.77;;;3.07;;
19854;SDS011;10088;47.946;2.532;2022-12-29T09:59:41;8.67;;;2.67;;
19854;SDS011;10088;47.946;2.532;2022-12-29T10:02:49;8.43;;;1.87;;
19854;SDS011;10088;47.946;2.532;2022-12-29T10:04:55;6.17;;;2.57;;
19854;SDS011;10088;47.946;2.532;2022-12-29T10:07:38;6.77;;;1.97;;
19854;SDS011;10088;47.946;2.532;2022-12-29T10:25:09;7.07;;;2.30;;
19854;SDS011;10088;47.946;2.532;2022-12-29T10:27:37;10.50;;;2.50;;
19854;SDS011;10088;47.946;2.532;2022-12-29T10:33:08;7.43;;;2.20;;
19854;SDS011;10088;47.946;2.532;2022-12-29T10:36:01;10.03;;;2.37;;
19854;SDS011;10088;47.946;2.532;2022-12-29T10:44:24;11.10;;;2.57;;
19854;SDS011;10088;47.946;2.532;2022-12-29T10:47:15;8.47;;;2.17;;
19854;SDS011;10088;47.946;2.532;2022-12-29T10:50:19;9.33;;;2.20;;
19854;SDS011;10088;47.946;2.532;2022-12-29T10:53:02;44.83;;;25.80;;
19854;SDS011;10088;47.946;2.532;2022-12-29T10:55:50;11.27;;;5.03;;
19854;SDS011;10088;47.946;2.532;2022-12-29T10:58:23;8.30;;;2.20;;
19854;SDS011;10088;47.946;2.532;2022-12-29T11:00:51;7.87;;;2.13;;
19854;SDS011;10088;47.946;2.532;2022-12-29T11:12:27;13.53;;;5.37;;
19854;SDS011;10088;47.946;2.532;2022-12-29T11:24:21;10.97;;;2.43;;
19854;SDS011;10088;47.946;2.532;2022-12-29T11:27:29;7.30;;;2.30;;
19854;SDS011;10088;47.946;2.532;2022-12-29T11:33:32;19.27;;;3.07;;
19854;SDS011;10088;47.946;2.532;2022-12-29T11:36:07;5.80;;;2.30;;
19854;SDS011;10088;47.946;2.532;2022-12-29T11:39:30;10.40;;;2.27;;
19854;SDS011;10088;47.946;2.532;2022-12-29T11:42:00;6.40;;;2.27;;
19854;SDS011;10088;47.946;2.532;2022-12-29T11:48:39;8.07;;;3.20;;
19854;SDS011;10088;47.946;2.532;2022-12-29T11:51:44;7.13;;;2.13;;
19854;SDS011;10088;47.946;2.532;2022-12-29T11:54:53;9.07;;;2.53;;
19854;SDS011;10088;47.946;2.532;2022-12-29T11:57:45;5.40;;;1.93;;
19854;SDS011;10088;47.946;2.532;2022-12-29T12:00:55;8.10;;;2.77;;
19854;SDS011;10088;47.946;2.532;2022-12-29T12:10:05;8.47;;;2.10;;
19854;SDS011;10088;47.946;2.532;2022-12-29T12:16:39;8.97;;;2.10;;
19854;SDS011;10088;47.946;2.532;2022-12-29T12:22:29;10.37;;;3.40;;
19854;SDS011;10088;47.946;2.532;2022-12-29T12:24:59;7.10;;;2.20;;
19854;SDS011;10088;47.946;2.532;2022-12-29T12:30:52;9.47;;;1.90;;
19854;SDS011;10088;47.946;2.532;2022-12-29T12:33:38;8.57;;;2.50;;
19854;SDS011;10088;47.946;2.532;2022-12-29T12:48:10;8.87;;;2.23;;
19854;SDS011;10088;47.946;2.532;2022-12-29T12:57:40;7.23;;;1.53;;
19854;SDS011;10088;47.946;2.532;2022-12-29T13:00:18;8.40;;;2.03;;
19854;SDS011;10088;47.946;2.532;2022-12-29T13:12:24;6.13;;;2.20;;
19854;SDS011;10088;47.946;2.532;2022-12-29T13:23:54;7.37;;;1.70;;
19854;SDS011;10088;47.946;2.532;2022-12-29T13:36:10;11.57;;;3.63;;
19854;SDS011;10088;47.946;2.532;2022-12-29T13:38:53;6.43;;;2.10;;
19854;SDS011;10088;47.946;2.532;2022-12-29T13:49:26;16.17;;;5.27;;
19854;SDS011;10088;47.946;2.532;2022-12-29T14:12:41;13.37;;;6.47;;
19854;SDS011;10088;47.946;2.532;2022-12-29T14:17:36;14.00;;;4.03;;
19854;SDS011;10088;47.946;2.532;2022-12-29T14:20:02;18.03;;;6.00;;
19854;SDS011;10088;47.946;2.532;2022-12-29T14:22:29;8.30;;;1.90;;
19854;SDS011;10088;47.946;2.532;2022-12-29T14:24:54;15.70;;;6.87;;
19854;SDS011;10088;47.946;2.532;2022-12-29T14:29:46;8.50;;;2.03;;
19854;SDS011;10088;47.946;2.532;2022-12-29T14:34:46;20.30;;;7.00;;
19854;SDS011;10088;47.946;2.532;2022-12-29T14:42:27;10.07;;;2.43;;
19854;SDS011;10088;47.946;2.532;2022-12-29T14:45:00;9.27;;;3.10;;
19854;SDS011;10088;47.946;2.532;2022-12-29T14:49:51;17.40;;;7.47;;
19854;SDS011;10088;47.946;2.532;2022-12-29T14:52:28;7.60;;;2.23;;
19854;SDS011;10088;47.946;2.532;2022-12-29T14:54:56;7.83;;;2.40;;
19854;SDS011;10088;47.946;2.532;2022-12-29T14:59:48;10.23;;;2.83;;
19854;SDS011;10088;47.946;2.532;2022-12-29T15:02:19;9.90;;;4.07;;
19854;SDS011;10088;47.946;2.532;2022-12-29T15:04:46;8.63;;;2.73;;
19854;SDS011;10088;47.946;2.532;2022-12-29T15:07:11;11.60;;;2.60;;
19854;SDS011;10088;47.946;2.532;2022-12-29T15:09:45;14.13;;;5.03;;
19854;SDS011;10088;47.946;2.532;2022-12-29T15:12:19;15.73;;;5.27;;
19854;SDS011;10088;47.946;2.532;2022-12-29T15:14:49;10.80;;;3.53;;
19854;SDS011;10088;47.946;2.532;2022-12-29T15:17:28;8.27;;;2.20;;
19854;SDS011;10088;47.946;2.532;2022-12-29T15:19:54;6.17;;;2.30;;
19854;SDS011;10088;47.946;2.532;2022-12-29T15:22:20;6.87;;;2.27;;
19854;SDS011;10088;47.946;2.532;2022-12-29T15:27:52;8.37;;;2.50;;
19854;SDS011;10088;47.946;2.532;2022-12-29T15:30:19;12.90;;;3.40;;
19854;SDS011;10088;47.946;2.532;2022-12-29T15:32:45;9.70;;;2.43;;
19854;SDS011;10088;47.946;2.532;2022-12-29T15:35:24;12.27;;;2.53;;
19854;SDS011;10088;47.946;2.532;2022-12-29T15:37:50;5.97;;;1.80;;
19854;SDS011;10088;47.946;2.532;2022-12-29T15:40:49;10.57;;;3.70;;
19854;SDS011;10088;47.946;2.532;2022-12-29T15:43:20;13.63;;;3.30;;
19854;SDS011;10088;47.946;2.532;2022-12-29T15:45:49;11.87;;;2.97;;
19854;SDS011;10088;47.946;2.532;2022-12-29T15:48:19;9.60;;;2.07;;
19854;SDS011;10088;47.946;2.532;2022-12-29T15:50:46;12.80;;;2.87;;
19854;SDS011;10088;47.946;2.532;2022-12-29T15:53:12;9.23;;;2.83;;
19854;SDS011;10088;47.946;2.532;2022-12-29T15:55:41;10.70;;;2.93;;
19854;SDS011;10088;47.946;2.532;2022-12-29T15:58:41;5.90;;;1.47;;
19854;SDS011;10088;47.946;2.532;2022-12-29T16:01:00;8.13;;;1.37;;
19854;SDS011;10088;47.946;2.532;2022-12-29T16:03:27;10.77;;;1.57;;
19854;SDS011;10088;47.946;2.532;2022-12-29T16:05:56;10.33;;;2.50;;
19854;SDS011;10088;47.946;2.532;2022-12-29T16:08:32;8.30;;;1.87;;
19854;SDS011;10088;47.946;2.532;2022-12-29T16:11:01;28.73;;;14.57;;
19854;SDS011;10088;47.946;2.532;2022-12-29T16:13:29;14.67;;;2.97;;
19854;SDS011;10088;47.946;2.532;2022-12-29T16:15:56;9.17;;;1.73;;
19854;SDS011;10088;47.946;2.532;2022-12-29T16:18:25;9.23;;;1.93;;
19854;SDS011;10088;47.946;2.532;2022-12-29T16:20:52;8.17;;;1.77;;
19854;SDS011;10088;47.946;2.532;2022-12-29T16:23:19;6.67;;;1.90;;
19854;SDS011;10088;47.946;2.532;2022-12-29T16:25:45;8.13;;;2.20;;
19854;SDS011;10088;47.946;2.532;2022-12-29T16:28:14;9.43;;;1.90;;
19854;SDS011;10088;47.946;2.532;2022-12-29T16:30:40;7.37;;;1.93;;
19854;SDS011;10088;47.946;2.532;2022-12-29T16:33:06;7.20;;;1.53;;
19854;SDS011;10088;47.946;2.532;2022-12-29T16:35:39;8.83;;;1.93;;
19854;SDS011;10088;47.946;2.532;2022-12-29T16:38:14;5.83;;;1.90;;
19854;SDS011;10088;47.946;2.532;2022-12-29T16:40:50;7.57;;;2.20;;
19854;SDS011;10088;47.946;2.532;2022-12-29T16:43:32;9.93;;;1.70;;
19854;SDS011;10088;47.946;2.532;2022-12-29T16:48:25;17.13;;;6.47;;
19854;SDS011;10088;47.946;2.532;2022-12-29T16:50:51;14.00;;;3.13;;
19854;SDS011;10088;47.946;2.532;2022-12-29T16:53:21;9.00;;;2.33;;
19854;SDS011;10088;47.946;2.532;2022-12-29T16:55:49;8.07;;;2.33;;
19854;SDS011;10088;47.946;2.532;2022-12-29T16:58:16;11.67;;;2.63;;
19854;SDS011;10088;47.946;2.532;2022-12-29T17:00:44;10.83;;;2.43;;
19854;SDS011;10088;47.946;2.532;2022-12-29T17:03:10;14.93;;;3.50;;
19854;SDS011;10088;47.946;2.532;2022-12-29T17:05:36;8.53;;;2.03;;
19854;SDS011;10088;47.946;2.532;2022-12-29T17:08:01;6.27;;;2.30;;
19854;SDS011;10088;47.946;2.532;2022-12-29T17:10:27;7.17;;;1.80;;
19854;SDS011;10088;47.946;2.532;2022-12-29T17:13:12;14.33;;;2.10;;
19854;SDS011;10088;47.946;2.532;2022-12-29T17:15:38;9.27;;;2.20;;
19854;SDS011;10088;47.946;2.532;2022-12-29T17:18:03;9.37;;;2.03;;
19854;SDS011;10088;47.946;2.532;2022-12-29T17:20:29;8.67;;;2.17;;
19854;SDS011;10088;47.946;2.532;2022-12-29T17:22:55;8.77;;;1.70;;
19854;SDS011;10088;47.946;2.532;2022-12-29T17:25:22;7.40;;;1.67;;
19854;SDS011;10088;47.946;2.532;2022-12-29T17:27:53;6.23;;;1.70;;
19854;SDS011;10088;47.946;2.532;2022-12-29T17:30:20;13.27;;;2.00;;
19854;SDS011;10088;47.946;2.532;2022-12-29T17:32:53;10.33;;;1.83;;
19854;SDS011;10088;47.946;2.532;2022-12-29T17:35:21;10.27;;;2.73;;
19854;SDS011;10088;47.946;2.532;2022-12-29T17:37:47;10.90;;;3.60;;
19854;SDS011;10088;47.946;2.532;2022-12-29T17:40:14;5.73;;;1.90;;
19854;SDS011;10088;47.946;2.532;2022-12-29T17:42:43;10.27;;;2.87;;
19854;SDS011;10088;47.946;2.532;2022-12-29T17:45:16;7.70;;;2.33;;
19854;SDS011;10088;47.946;2.532;2022-12-29T17:47:42;9.03;;;2.30;;
19854;SDS011;10088;47.946;2.532;2022-12-29T17:50:11;15.90;;;5.23;;
19854;SDS011;10088;47.946;2.532;2022-12-29T17:52:37;20.27;;;8.07;;
19854;SDS011;10088;47.946;2.532;2022-12-29T17:55:02;17.73;;;7.10;;
19854;SDS011;10088;47.946;2.532;2022-12-29T17:57:28;20.70;;;9.70;;
19854;SDS011;10088;47.946;2.532;2022-12-29T17:59:53;17.93;;;7.47;;
19854;SDS011;10088;47.946;2.532;2022-12-29T18:02:21;14.40;;;5.10;;
19854;SDS011;10088;47.946;2.532;2022-12-29T18:04:47;11.63;;;3.90;;
19854;SDS011;10088;47.946;2.532;2022-12-29T18:07:13;10.43;;;3.23;;
19854;SDS011;10088;47.946;2.532;2022-12-29T18:09:38;11.17;;;3.20;;
19854;SDS011;10088;47.946;2.532;2022-12-29T18:12:03;9.10;;;2.63;;
19854;SDS011;10088;47.946;2.532;2022-12-29T18:14:29;6.67;;;2.63;;
19854;SDS011;10088;47.946;2.532;2022-12-29T18:16:55;20.00;;;7.80;;
19854;SDS011;10088;47.946;2.532;2022-12-29T18:19:20;29.10;;;12.90;;